sensor_id;sensor_type;location;lat;lon;timestamp;pressure;altitude;pressure_sealevel;temperature
62107;BMP280;48087;32.600;-97.100;2023-03-14T00:04:44;;;;14.833185000000002
62107;BMP280;48087;32.600;-97.100;2023-03-14T00:09:50;;;;14.77763
62107;BMP280;48087;32.600;-97.100;2023-03-14T00:14:52;;;;14.388744999999998
62107;BMP280;48087;32.600;-97.100;2023-03-14T00:19:57;;;;14.055414999999998
62107;BMP280;48087;32.600;-97.100;2023-03-14T00:25:01;;;;13.777639999999998
62107;BMP280;48087;32.600;-97.100;2023-03-14T00:30:06;;;;13.610975
62107;BMP280;48087;32.600;-97.100;2023-03-14T00:35:08;;;;13.3332
62107;BMP280;48087;32.600;-97.100;2023-03-14T00:40:13;;;;13.277645
62107;BMP280;48087;32.600;-97.100;2023-03-14T00:45:16;;;;13.11098
62107;BMP280;48087;32.600;-97.100;2023-03-14T00:50:21;;;;12.944314999999998
62107;BMP280;48087;32.600;-97.100;2023-03-14T00:55:24;;;;12.77765
62107;BMP280;48087;32.600;-97.100;2023-03-14T01:00:29;;;;12.666539999999998
62107;BMP280;48087;32.600;-97.100;2023-03-14T01:05:32;;;;12.44432
62107;BMP280;48087;32.600;-97.100;2023-03-14T01:10:38;;;;12.333210000000001
62107;BMP280;48087;32.600;-97.100;2023-03-14T01:15:40;;;;12.277655000000001
62107;BMP280;48087;32.600;-97.100;2023-03-14T01:20:45;;;;12.166545
62107;BMP280;48087;32.600;-97.100;2023-03-14T01:25:48;;;;12.055435000000001
62107;BMP280;48087;32.600;-97.100;2023-03-14T01:30:53;;;;12.055435000000001
62107;BMP280;48087;32.600;-97.100;2023-03-14T01:35:57;;;;11.944325
62107;BMP280;48087;32.600;-97.100;2023-03-14T01:41:02;;;;11.777660000000001
62107;BMP280;48087;32.600;-97.100;2023-03-14T01:46:12;;;;11.777660000000001
62107;BMP280;48087;32.600;-97.100;2023-03-14T01:51:10;;;;11.555439999999999
62107;BMP280;48087;32.600;-97.100;2023-03-14T01:56:13;;;;11.333219999999999
62107;BMP280;48087;32.600;-97.100;2023-03-14T02:01:18;;;;11.166555
62107;BMP280;48087;32.600;-97.100;2023-03-14T02:06:21;;;;11.111
62107;BMP280;48087;32.600;-97.100;2023-03-14T02:11:26;;;;10.999889999999999
62107;BMP280;48087;32.600;-97.100;2023-03-14T02:16:28;;;;10.833225
62107;BMP280;48087;32.600;-97.100;2023-03-14T02:21:37;;;;10.722114999999999
62107;BMP280;48087;32.600;-97.100;2023-03-14T02:26:36;;;;10.722114999999999
62107;BMP280;48087;32.600;-97.100;2023-03-14T02:31:41;;;;10.777669999999999
62107;BMP280;48087;32.600;-97.100;2023-03-14T02:36:44;;;;10.66656
62107;BMP280;48087;32.600;-97.100;2023-03-14T02:41:48;;;;10.55545
62107;BMP280;48087;32.600;-97.100;2023-03-14T02:46:53;;;;10.55545
62107;BMP280;48087;32.600;-97.100;2023-03-14T02:51:56;;;;10.55545
62107;BMP280;48087;32.600;-97.100;2023-03-14T02:56:59;;;;10.66656
62107;BMP280;48087;32.600;-97.100;2023-03-14T03:02:04;;;;10.55545
62107;BMP280;48087;32.600;-97.100;2023-03-14T03:07:08;;;;10.499894999999999
62107;BMP280;48087;32.600;-97.100;2023-03-14T03:12:12;;;;10.444339999999999
62107;BMP280;48087;32.600;-97.100;2023-03-14T03:17:16;;;;10.388785000000002
62107;BMP280;48087;32.600;-97.100;2023-03-14T03:22:19;;;;10.499894999999999
62107;BMP280;48087;32.600;-97.100;2023-03-14T03:27:23;;;;10.388785000000002
62107;BMP280;48087;32.600;-97.100;2023-03-14T03:32:28;;;;10.388785000000002
62107;BMP280;48087;32.600;-97.100;2023-03-14T03:37:32;;;;10.33323
62107;BMP280;48087;32.600;-97.100;2023-03-14T03:42:37;;;;10.33323
62107;BMP280;48087;32.600;-97.100;2023-03-14T03:47:40;;;;10.277675
62107;BMP280;48087;32.600;-97.100;2023-03-14T03:52:44;;;;10.222119999999999
62107;BMP280;48087;32.600;-97.100;2023-03-14T03:57:47;;;;10.277675
62107;BMP280;48087;32.600;-97.100;2023-03-14T04:02:53;;;;10.222119999999999
62107;BMP280;48087;32.600;-97.100;2023-03-14T04:07:56;;;;10.222119999999999
62107;BMP280;48087;32.600;-97.100;2023-03-14T04:12:59;;;;10.166564999999999
62107;BMP280;48087;32.600;-97.100;2023-03-14T04:18:04;;;;10.166564999999999
62107;BMP280;48087;32.600;-97.100;2023-03-14T04:23:08;;;;10.055455
62107;BMP280;48087;32.600;-97.100;2023-03-14T04:28:12;;;;10.166564999999999
62107;BMP280;48087;32.600;-97.100;2023-03-14T04:33:16;;;;10.055455
62107;BMP280;48087;32.600;-97.100;2023-03-14T04:38:20;;;;9.9999
62107;BMP280;48087;32.600;-97.100;2023-03-14T04:43:24;;;;9.833235000000002
62107;BMP280;48087;32.600;-97.100;2023-03-14T04:48:27;;;;9.77768
62107;BMP280;48087;32.600;-97.100;2023-03-14T04:53:31;;;;9.722125
62107;BMP280;48087;32.600;-97.100;2023-03-14T04:58:36;;;;9.611014999999998
62107;BMP280;48087;32.600;-97.100;2023-03-14T05:03:39;;;;9.555460000000002
62107;BMP280;48087;32.600;-97.100;2023-03-14T05:08:44;;;;9.555460000000002
62107;BMP280;48087;32.600;-97.100;2023-03-14T05:13:48;;;;9.499905
62107;BMP280;48087;32.600;-97.100;2023-03-14T05:18:52;;;;9.44435
62107;BMP280;48087;32.600;-97.100;2023-03-14T05:23:56;;;;9.499905
62107;BMP280;48087;32.600;-97.100;2023-03-14T05:29:00;;;;9.44435
62107;BMP280;48087;32.600;-97.100;2023-03-14T05:34:04;;;;9.44435
62107;BMP280;48087;32.600;-97.100;2023-03-14T05:39:08;;;;9.499905
62107;BMP280;48087;32.600;-97.100;2023-03-14T05:44:11;;;;9.44435
62107;BMP280;48087;32.600;-97.100;2023-03-14T05:49:16;;;;9.388794999999998
62107;BMP280;48087;32.600;-97.100;2023-03-14T05:54:19;;;;9.277685000000002
62107;BMP280;48087;32.600;-97.100;2023-03-14T05:59:24;;;;9.11102
62107;BMP280;48087;32.600;-97.100;2023-03-14T06:04:27;;;;8.999910000000002
62107;BMP280;48087;32.600;-97.100;2023-03-14T06:09:32;;;;8.8888
62107;BMP280;48087;32.600;-97.100;2023-03-14T06:14:35;;;;8.777689999999998
62107;BMP280;48087;32.600;-97.100;2023-03-14T06:19:40;;;;8.777689999999998
62107;BMP280;48087;32.600;-97.100;2023-03-14T06:24:42;;;;8.777689999999998
62107;BMP280;48087;32.600;-97.100;2023-03-14T06:29:47;;;;8.611025
62107;BMP280;48087;32.600;-97.100;2023-03-14T06:34:51;;;;8.611025
62107;BMP280;48087;32.600;-97.100;2023-03-14T06:39:56;;;;8.55547
62107;BMP280;48087;32.600;-97.100;2023-03-14T06:44:59;;;;8.55547
62107;BMP280;48087;32.600;-97.100;2023-03-14T06:50:04;;;;8.55547
62107;BMP280;48087;32.600;-97.100;2023-03-14T06:55:07;;;;8.444360000000001
62107;BMP280;48087;32.600;-97.100;2023-03-14T07:00:12;;;;8.388805000000001
62107;BMP280;48087;32.600;-97.100;2023-03-14T07:05:15;;;;8.277695
62107;BMP280;48087;32.600;-97.100;2023-03-14T07:10:19;;;;8.277695
62107;BMP280;48087;32.600;-97.100;2023-03-14T07:15:22;;;;8.222139999999998
62107;BMP280;48087;32.600;-97.100;2023-03-14T07:20:28;;;;8.166585000000001
62107;BMP280;48087;32.600;-97.100;2023-03-14T07:25:30;;;;8.111030000000001
62107;BMP280;48087;32.600;-97.100;2023-03-14T07:30:35;;;;7.9999199999999995
62107;BMP280;48087;32.600;-97.100;2023-03-14T07:35:38;;;;7.944364999999999
62107;BMP280;48087;32.600;-97.100;2023-03-14T07:40:43;;;;7.833255
62107;BMP280;48087;32.600;-97.100;2023-03-14T07:45:46;;;;7.777699999999999
62107;BMP280;48087;32.600;-97.100;2023-03-14T07:50:51;;;;7.55548
62107;BMP280;48087;32.600;-97.100;2023-03-14T07:55:54;;;;7.55548
62107;BMP280;48087;32.600;-97.100;2023-03-14T08:00:59;;;;7.499925
62107;BMP280;48087;32.600;-97.100;2023-03-14T08:06:02;;;;7.444369999999999
